createdAt,value
2019-03-11T00:02:53.811Z,3.20
2019-03-11T00:06:56.932Z,3.27
2019-03-11T00:10:59.963Z,2.83
2019-03-11T00:15:06.798Z,2.90
2019-03-11T00:19:10.036Z,3.00
2019-03-11T00:23:13.075Z,2.50
2019-03-11T00:27:16.107Z,2.57
2019-03-11T00:31:19.142Z,2.77
2019-03-11T00:35:22.149Z,2.53
2019-03-11T00:39:25.316Z,2.87
2019-03-11T00:43:28.340Z,2.70
2019-03-11T00:47:31.363Z,2.43
2019-03-11T00:51:34.378Z,2.97
2019-03-11T00:55:37.515Z,3.60
2019-03-11T00:59:40.527Z,3.30
2019-03-11T01:03:43.525Z,2.63
2019-03-11T01:07:46.545Z,2.73
2019-03-11T01:11:49.743Z,4.17
2019-03-11T01:15:54.098Z,3.20
2019-03-11T01:19:57.102Z,3.67
2019-03-11T01:24:01.277Z,2.83
2019-03-11T01:28:04.283Z,2.30
2019-03-11T01:32:07.461Z,3.13
2019-03-11T01:36:10.467Z,3.97
2019-03-11T01:40:17.084Z,2.33
2019-03-11T01:44:20.082Z,2.50
2019-03-11T01:48:23.079Z,3.83
2019-03-11T01:52:26.239Z,2.57
2019-03-11T01:56:29.252Z,2.33
2019-03-11T02:00:32.250Z,3.17
2019-03-11T02:04:35.280Z,3.63
2019-03-11T02:08:38.319Z,3.37
2019-03-11T02:12:41.560Z,2.77
2019-03-11T02:16:45.112Z,3.70
2019-03-11T02:20:48.131Z,2.67
2019-03-11T02:24:51.241Z,3.50
2019-03-11T02:28:54.260Z,2.70
2019-03-11T02:32:57.276Z,3.70
2019-03-11T02:37:00.349Z,2.93
2019-03-11T02:41:03.355Z,3.57
2019-03-11T02:45:08.865Z,3.47
2019-03-11T02:49:11.872Z,3.50
2019-03-11T02:53:14.881Z,4.47
2019-03-11T02:57:17.885Z,3.63
2019-03-11T03:01:31.530Z,3.43
2019-03-11T03:05:39.481Z,4.53
2019-03-11T03:09:43.477Z,3.57
2019-03-11T03:13:46.491Z,3.03
2019-03-11T03:17:51.577Z,3.30
2019-03-11T03:21:54.703Z,3.53
2019-03-11T03:25:57.717Z,3.33
2019-03-11T03:30:00.719Z,2.70
2019-03-11T03:34:03.717Z,3.53
2019-03-11T03:38:06.720Z,4.70
2019-03-11T03:42:12.966Z,4.53
2019-03-11T03:46:19.265Z,3.30
2019-03-11T03:50:25.473Z,3.00
2019-03-11T03:54:28.481Z,3.80
2019-03-11T03:58:31.513Z,3.33
2019-03-11T04:02:34.523Z,3.93
2019-03-11T04:06:37.520Z,4.30
2019-03-11T04:10:40.516Z,3.43
2019-03-11T04:14:43.534Z,3.67
2019-03-11T04:18:52.443Z,3.97
2019-03-11T04:22:56.773Z,4.67
2019-03-11T04:27:03.598Z,2.90
2019-03-11T04:31:06.713Z,3.00
2019-03-11T04:35:09.807Z,3.33
2019-03-11T04:39:12.804Z,3.60
2019-03-11T04:43:15.802Z,4.10
2019-03-11T04:47:18.895Z,3.57
2019-03-11T04:51:21.890Z,2.10
2019-03-11T04:55:24.904Z,1.77
2019-03-11T04:59:28.195Z,1.87
2019-03-11T05:03:31.267Z,0.70
2019-03-11T05:07:34.264Z,0.60
2019-03-11T05:11:37.263Z,0.60
2019-03-11T05:15:40.277Z,0.50
2019-03-11T05:19:45.058Z,0.50
2019-03-11T05:23:48.095Z,0.83
2019-03-11T05:27:51.111Z,0.50
2019-03-11T05:31:54.211Z,0.80
2019-03-11T05:35:57.441Z,0.80
2019-03-11T05:40:00.445Z,0.90
2019-03-11T05:44:03.439Z,1.20
2019-03-11T05:48:06.490Z,0.60
2019-03-11T05:52:09.584Z,0.73
2019-03-11T05:56:12.596Z,0.73
2019-03-11T06:00:19.206Z,0.80
2019-03-11T06:04:22.197Z,0.90
2019-03-11T06:08:25.922Z,0.93
2019-03-11T06:12:28.964Z,2.30
2019-03-11T06:16:31.982Z,0.73
2019-03-11T06:20:38.009Z,0.70
2019-03-11T06:24:41.004Z,1.10
2019-03-11T06:28:44.031Z,0.60
2019-03-11T06:32:47.144Z,0.63
2019-03-11T06:36:50.143Z,0.90
2019-03-11T06:40:53.141Z,0.80
2019-03-11T06:44:56.151Z,0.70
2019-03-11T06:48:59.181Z,0.73
2019-03-11T06:53:02.194Z,0.50
2019-03-11T06:57:05.198Z,0.80
2019-03-11T07:01:08.259Z,0.63
2019-03-11T07:05:19.993Z,0.73
2019-03-11T07:09:16.698Z,0.60
2019-03-11T07:13:19.798Z,0.73
2019-03-11T07:17:22.805Z,1.00
2019-03-11T07:21:26.527Z,0.50
2019-03-11T07:25:29.531Z,0.70
2019-03-11T07:29:32.547Z,0.80
2019-03-11T07:33:35.560Z,1.10
2019-03-11T07:37:38.576Z,0.90
2019-03-11T07:41:41.573Z,1.00
2019-03-11T07:45:44.584Z,0.93
2019-03-11T07:49:47.597Z,0.93
2019-03-11T07:53:50.611Z,0.90
2019-03-11T07:57:53.624Z,1.30
2019-03-11T08:01:56.720Z,1.30
2019-03-11T08:05:59.731Z,1.73
2019-03-11T08:10:06.539Z,1.80
2019-03-11T08:14:09.556Z,1.17
2019-03-11T08:18:12.570Z,1.47
2019-03-11T08:22:15.948Z,1.47
2019-03-11T08:26:18.955Z,1.60
2019-03-11T08:30:22.172Z,1.53
2019-03-11T08:34:25.207Z,1.20
2019-03-11T08:38:28.218Z,1.63
2019-03-11T08:42:31.231Z,1.37
2019-03-11T08:46:34.217Z,1.13
2019-03-11T08:50:37.235Z,1.47
2019-03-11T08:54:40.287Z,1.90
2019-03-11T08:58:43.293Z,1.30
2019-03-11T09:02:46.396Z,1.20
2019-03-11T09:06:49.506Z,1.40
2019-03-11T09:10:52.530Z,1.57
2019-03-11T09:14:55.587Z,2.23
2019-03-11T09:18:58.685Z,1.80
2019-03-11T09:23:02.968Z,1.80
2019-03-11T09:27:06.023Z,1.90
2019-03-11T09:31:09.059Z,2.30
2019-03-11T09:35:12.428Z,1.53
2019-03-11T09:39:15.450Z,1.70
2019-03-11T09:43:18.444Z,1.90
2019-03-11T09:47:21.444Z,2.17
2019-03-11T09:51:24.532Z,1.20
2019-03-11T09:55:28.128Z,0.90
2019-03-11T09:59:31.138Z,1.03
2019-03-11T10:03:34.138Z,1.20
2019-03-11T10:07:37.222Z,1.57
2019-03-11T10:11:40.228Z,2.27
2019-03-11T10:15:43.329Z,2.37
2019-03-11T10:19:46.421Z,1.80
2019-03-11T10:23:51.213Z,2.07
2019-03-11T10:27:54.208Z,2.20
2019-03-11T10:31:57.220Z,5.03
2019-03-11T10:36:00.222Z,1.80
2019-03-11T10:40:06.833Z,1.50
2019-03-11T10:44:09.842Z,2.73
2019-03-11T10:48:12.835Z,2.03
2019-03-11T10:52:15.848Z,1.40
2019-03-11T10:56:18.928Z,1.77
2019-03-11T11:00:27.389Z,2.00
2019-03-11T11:04:30.383Z,1.70
2019-03-11T11:08:33.380Z,1.60
2019-03-11T11:12:36.381Z,1.30
2019-03-11T11:16:39.456Z,1.30
2019-03-11T11:20:42.461Z,1.10
2019-03-11T11:24:46.397Z,1.73
2019-03-11T11:28:49.419Z,1.83
2019-03-11T11:32:52.737Z,1.53
2019-03-11T11:36:55.772Z,2.37
2019-03-11T11:40:58.779Z,1.50
2019-03-11T11:45:03.487Z,2.00
2019-03-11T11:49:06.503Z,1.80
2019-03-11T11:53:09.525Z,1.13
2019-03-11T11:57:12.527Z,1.80
2019-03-11T12:01:15.604Z,1.23
2019-03-11T12:05:18.608Z,1.60
2019-03-11T12:09:21.614Z,1.93
2019-03-11T12:13:24.628Z,1.50
2019-03-11T12:17:27.632Z,1.53
2019-03-11T12:21:30.694Z,2.80
2019-03-11T12:25:34.432Z,2.60
2019-03-11T12:29:37.508Z,1.73
2019-03-11T12:33:40.524Z,2.43
2019-03-11T12:37:43.524Z,1.87
2019-03-11T12:41:46.596Z,1.33
2019-03-11T12:45:49.696Z,1.53
2019-03-11T12:49:52.808Z,1.80
2019-03-11T12:53:55.807Z,1.70
2019-03-11T12:57:58.816Z,2.70
2019-03-11T13:02:01.996Z,1.67
2019-03-11T13:06:05.020Z,1.63
2019-03-11T13:10:20.793Z,1.33
2019-03-11T13:14:23.797Z,2.23
2019-03-11T13:18:38.121Z,2.17
2019-03-11T13:22:41.129Z,1.50
2019-03-11T13:26:45.445Z,1.37
2019-03-11T13:30:48.451Z,1.90
2019-03-11T13:34:51.475Z,2.47
2019-03-11T13:38:54.479Z,1.80
2019-03-11T13:42:57.496Z,1.77
2019-03-11T13:47:00.512Z,2.30
2019-03-11T13:51:03.859Z,2.63
2019-03-11T13:55:10.556Z,2.70
2019-03-11T13:59:13.688Z,1.20
2019-03-11T14:03:16.693Z,1.10
2019-03-11T14:07:19.945Z,2.33
2019-03-11T14:11:22.945Z,2.03
2019-03-11T14:15:25.968Z,2.57
2019-03-11T14:19:28.989Z,2.60
2019-03-11T14:23:32.019Z,1.60
2019-03-11T14:27:35.760Z,1.70
2019-03-11T14:31:38.772Z,1.00
2019-03-11T14:35:41.807Z,1.40
2019-03-11T14:39:44.828Z,1.30
2019-03-11T14:43:47.836Z,1.20
2019-03-11T14:47:50.970Z,1.40
2019-03-11T14:51:54.099Z,1.40
2019-03-11T14:55:57.185Z,1.50
2019-03-11T15:00:00.344Z,1.93
2019-03-11T15:04:03.599Z,1.30
2019-03-11T15:08:06.794Z,1.87
2019-03-11T15:12:10.105Z,1.10
2019-03-11T15:16:13.307Z,1.30
2019-03-11T15:20:16.524Z,2.20
2019-03-11T15:24:19.513Z,1.77
2019-03-11T15:28:23.816Z,2.13
2019-03-11T15:32:26.916Z,1.63
2019-03-11T15:36:33.298Z,1.83
2019-03-11T15:40:34.917Z,1.90
2019-03-11T15:44:37.929Z,2.53
2019-03-11T15:48:40.993Z,2.50
2019-03-11T15:52:43.979Z,2.30
2019-03-11T15:56:47.002Z,3.03
2019-03-11T16:00:50.055Z,1.93
2019-03-11T16:04:53.111Z,1.50
2019-03-11T16:08:56.108Z,1.23
2019-03-11T16:12:59.202Z,1.33
2019-03-11T16:17:02.366Z,1.67
2019-03-11T16:21:05.676Z,1.57
2019-03-11T16:25:09.804Z,1.20
2019-03-11T16:29:14.228Z,2.00
2019-03-11T16:33:17.256Z,1.60
2019-03-11T16:37:20.259Z,1.67
2019-03-11T16:41:23.323Z,1.73
2019-03-11T16:45:26.556Z,1.37
2019-03-11T16:49:29.616Z,2.07
2019-03-11T16:53:32.719Z,1.57
2019-03-11T16:57:35.848Z,1.63
2019-03-11T17:01:38.911Z,1.77
2019-03-11T17:05:41.919Z,1.80
2019-03-11T17:09:45.028Z,1.33
2019-03-11T17:13:48.119Z,1.70
2019-03-11T17:17:51.225Z,1.10
2019-03-11T17:21:54.240Z,1.67
2019-03-11T17:25:57.320Z,1.63
2019-03-11T17:30:02.064Z,1.93
2019-03-11T17:34:05.173Z,1.33
2019-03-11T17:38:08.251Z,1.93
2019-03-11T17:42:11.243Z,1.67
2019-03-11T17:46:14.420Z,1.40
2019-03-11T17:50:21.828Z,1.67
2019-03-11T17:54:24.968Z,0.90
2019-03-11T17:58:27.967Z,2.00
2019-03-11T18:02:31.025Z,1.73
2019-03-11T18:06:34.051Z,1.70
2019-03-11T18:10:37.056Z,1.77
2019-03-11T18:14:40.241Z,2.20
2019-03-11T18:18:43.271Z,1.50
2019-03-11T18:22:46.570Z,1.60
2019-03-11T18:26:49.664Z,1.90
2019-03-11T18:30:53.747Z,2.13
2019-03-11T18:34:56.792Z,2.13
2019-03-11T18:38:59.895Z,1.67
2019-03-11T18:43:04.168Z,2.47
2019-03-11T18:47:07.351Z,1.83
2019-03-11T18:51:11.421Z,1.90
2019-03-11T18:55:14.651Z,1.67
2019-03-11T18:59:17.705Z,1.47
2019-03-11T19:03:20.813Z,1.60
2019-03-11T19:07:24.052Z,1.33
2019-03-11T19:11:27.259Z,2.20
2019-03-11T19:15:30.488Z,1.80
2019-03-11T19:19:45.283Z,2.90
2019-03-11T19:23:38.517Z,1.87
2019-03-11T19:27:41.653Z,2.03
2019-03-11T19:31:45.784Z,1.83
2019-03-11T19:35:49.943Z,2.23
2019-03-11T19:39:53.068Z,2.20
2019-03-11T19:43:56.156Z,2.53
2019-03-11T19:47:59.169Z,2.30
2019-03-11T19:52:02.242Z,2.40
2019-03-11T19:56:05.252Z,2.90
2019-03-11T20:00:18.345Z,2.50
2019-03-11T20:04:21.518Z,2.70
2019-03-11T20:08:24.697Z,2.30
2019-03-11T20:12:27.851Z,3.17
2019-03-11T20:16:31.193Z,2.70
2019-03-11T20:20:34.416Z,3.10
2019-03-11T20:24:37.691Z,3.10
2019-03-11T20:28:40.919Z,2.80
2019-03-11T20:32:44.860Z,2.63
2019-03-11T20:36:48.097Z,2.30
2019-03-11T20:40:51.121Z,2.97
2019-03-11T20:44:54.323Z,3.50
2019-03-11T20:48:57.394Z,3.00
2019-03-11T20:53:00.643Z,3.40
2019-03-11T20:57:03.757Z,3.13
2019-03-11T21:01:06.974Z,2.90
2019-03-11T21:05:12.562Z,3.83
2019-03-11T21:09:15.759Z,4.03
2019-03-11T21:13:19.101Z,3.43
2019-03-11T21:17:26.976Z,4.40
2019-03-11T21:21:27.134Z,2.87
2019-03-11T21:25:30.159Z,3.10
2019-03-11T21:29:33.180Z,3.53
2019-03-11T21:33:37.464Z,3.63
2019-03-11T21:37:40.602Z,17.93
2019-03-11T21:41:43.652Z,6.03
2019-03-11T21:45:46.685Z,3.40
2019-03-11T21:49:49.801Z,4.10
2019-03-11T21:53:52.976Z,4.20
2019-03-11T21:57:56.173Z,3.73
2019-03-11T22:01:59.396Z,4.40
2019-03-11T22:06:02.733Z,3.50
2019-03-11T22:10:08.933Z,3.87
2019-03-11T22:14:11.956Z,3.37
2019-03-11T22:18:15.060Z,2.80
2019-03-11T22:22:18.071Z,3.10
2019-03-11T22:26:21.085Z,3.30
2019-03-11T22:30:24.295Z,3.60
2019-03-11T22:34:28.637Z,3.93
2019-03-11T22:38:31.645Z,3.20
2019-03-11T22:42:34.665Z,2.80
2019-03-11T22:46:37.688Z,2.63
2019-03-11T22:50:40.722Z,2.43
2019-03-11T22:54:43.733Z,3.60
2019-03-11T22:58:46.737Z,2.93
2019-03-11T23:02:49.948Z,2.63
2019-03-11T23:06:52.973Z,2.97
2019-03-11T23:10:55.989Z,2.67
2019-03-11T23:14:59.005Z,2.73
2019-03-11T23:19:02.008Z,2.60
2019-03-11T23:23:05.042Z,3.13
2019-03-11T23:27:08.086Z,3.47
2019-03-11T23:31:11.101Z,2.30
2019-03-11T23:35:15.573Z,3.13
2019-03-11T23:39:18.590Z,3.30
2019-03-11T23:43:21.609Z,2.47
2019-03-11T23:47:24.728Z,2.90
2019-03-11T23:51:27.723Z,1.80
2019-03-11T23:55:30.740Z,2.40
2019-03-11T23:59:33.748Z,2.87
